Irvington, AL (36544)

10:17 PM CST on December 08, 2016 (GMT -0600)
Jamestown | | Change Station

Elev 95 ft 30.51 °N, 88.20 °W | Updated 3 seconds ago

Mostly Cloudy
Mostly Cloudy
44.4 °F
Feels Like 44 °F
N
0.0
Wind Variable Wind from NW
Gusts 0.0 mph

Today
High -- | Low -- °F
--% Chance of Precip.
Yesterday
High -- | Low -- °F
Precip. -- in
Pressure 30.43 in
Visibility 10.0 miles
Clouds Scattered Clouds 11000 ft
Windchill 44 °F
Dew Point 33 °F
Humidity 63%
Rainfall 0.00 in
Snow Depth Not available.
6:38 AM 4:52 PM
Waxing Gibbous, 70% visible
METAR KMOB 090356Z 02010KT 10SM SCT110 07/M03 A3043 RMK AO2 SLP303 T00671033
Pressure 30.43 in
Visibility 10.0 miles
Clouds Scattered Clouds 11000 ft
Windchill 44 °F
Dew Point 33 °F
Humidity 63%
Rainfall 0.00 in
Snow Depth Not available.
6:38 AM 4:52 PM
Waxing Gibbous, 70% visible
METAR KMOB 090356Z 02010KT 10SM SCT110 07/M03 A3043 RMK AO2 SLP303 T00671033

10-Day Weather Forecast

Almanac

Astronomy

Dec. 08, 2016 Rise Set
Actual Time
Civil Twilight
Nautical Twilight
Astronomical Twilight
Moon
Length of Visible Light
Length of Day
Tomorrow will be .
, % of the Moon is Illuminated

Today's Extremes

State Highs State Lows

Community

WunderPhotos

Upload Photos

1,956,370 photos uploaded!

WunderBlog® & News

Nearby

Air Quality

  Air Quality AQ Index Pollutant
Not available.

Snow Depth

Station Depth Elevation

Earthquake Activity

City Distance Mag. Time & Date
Minimum magnitude displayed is 2.5.

Coastal Water Temperatures

Place Temperature

Stations

Nearby Weather Stations

Station Location Temp. Windchill Dew Point Humidity Wind Precip. Elev Updated Type
                   

Watches & Warnings

There are currently no watches in effect.